Elite — PHDA — position and weather

sailwx.info

Track history (hours):
 
Tides and Currents Weather Stations Pressure Air Temp Water Temp Dewpoint Dewpoint Depression Visibility Wind Speed Wind Dir Waves Ship Positions

Elite

Last reported at 2017-Nov-24 07:30 UTC. Time now 2017-Nov-24 07:33 UTC.
Position N 51°53' E 004°25'.

Length 149 m; draft 6.5 m.

Type: Ship (hazmat cat A). MMSI: 246363000.

Date/timePositionNaut miles runAvg speedWind from/ knotsBaromVisibWave heightAir tempDewpointWater temp
2017-Nov-24 07:30N 51°53' E 004°25'0 0.0
2017-Nov-24 07:00N 51°53' E 004°25'0 0.0
2017-Nov-24 06:30N 51°53' E 004°25'0 0.0
2017-Nov-24 06:00N 51°53' E 004°25'0 0.0
2017-Nov-24 05:30N 51°53' E 004°25'0 0.0
2017-Nov-24 05:00N 51°53' E 004°25'0 0.9
2017-Nov-24 04:30N 51°53' E 004°24'3 6.4
2017-Nov-24 04:00N 51°54' E 004°19'4 7.3
2017-Nov-24 03:30N 51°51' E 004°23'510.7
2017-Nov-24 03:01N 51°50' E 004°31'4 8.2
2017-Nov-24 02:31N 51°48' E 004°37'5 9.4
2017-Nov-24 02:00N 51°43' E 004°37'2 4.8
2017-Nov-24 01:30N 51°41' E 004°36'0 0.0
2017-Nov-24 01:00N 51°41' E 004°36'0 0.0
2017-Nov-24 00:24N 51°41' E 004°36'0 0.0
2017-Nov-24 00:00N 51°41' E 004°36'0 0.0
2017-Nov-23 23:30N 51°41' E 004°36'0 0.0
2017-Nov-23 23:00N 51°41' E 004°36'0 0.0
2017-Nov-23 22:30N 51°41' E 004°36'0 0.0
2017-Nov-23 22:00N 51°41' E 004°36'0 0.0
2017-Nov-23 21:27N 51°41' E 004°36'0 0.0
2017-Nov-23 21:00N 51°41' E 004°36'0 0.0
2017-Nov-23 20:30N 51°41' E 004°36'0 0.0
2017-Nov-23 20:00N 51°41' E 004°36'0 0.0
2017-Nov-23 19:30N 51°41' E 004°36'0 0.0
2017-Nov-23 19:00N 51°41' E 004°36'0 0.0
2017-Nov-23 18:30N 51°41' E 004°36'0 0.0
2017-Nov-23 18:00N 51°41' E 004°36'0 0.0
2017-Nov-23 17:30N 51°41' E 004°36'0 0.0
2017-Nov-23 16:57N 51°41' E 004°36'0 0.0
2017-Nov-23 16:30N 51°41' E 004°36'0 0.0
2017-Nov-23 16:00N 51°41' E 004°36'0 0.0
2017-Nov-23 15:30N 51°41' E 004°36'0 0.0
2017-Nov-23 15:00N 51°41' E 004°36'0 0.0
2017-Nov-23 14:21N 51°41' E 004°36'0 0.0
2017-Nov-23 14:00N 51°41' E 004°36'0 0.0
2017-Nov-23 13:30N 51°41' E 004°36'0 0.0
2017-Nov-23 12:57N 51°41' E 004°36'0 0.0
2017-Nov-23 12:18N 51°41' E 004°36'0 0.0
2017-Nov-23 11:51N 51°41' E 004°36'0 0.0
2017-Nov-23 11:30N 51°41' E 004°36'0 0.0
2017-Nov-23 11:00N 51°41' E 004°36'0 0.0
2017-Nov-23 10:30N 51°41' E 004°36'0 0.0
2017-Nov-23 10:00N 51°41' E 004°36'0 0.3
2017-Nov-23 09:30N 51°41' E 004°36'1 1.5
2017-Nov-23 09:00N 51°42' E 004°36'4 8.0
2017-Nov-23 08:30N 51°46' E 004°38'4 8.0
2017-Nov-23 08:00N 51°49' E 004°34'4 8.9
2017-Nov-23 07:30N 51°50' E 004°27'510.1
2017-Nov-23 07:00N 51°52' E 004°20'5 9.5
2017-Nov-23 06:30N 51°55' E 004°14'612.6
2017-Nov-23 06:00N 51°59' E 004°05'714.1
2017-Nov-23 05:30N 52°01' E 003°54'510.4
2017-Nov-23 05:00N 51°59' E 003°46'611.9
2017-Nov-23 04:30N 51°58' E 003°36'713.5
2017-Nov-23 04:00N 51°56' E 003°26'1413.6
2017-Nov-23 02:58N 51°53' E 003°04'2914.5
2017-Nov-23 00:59N 51°47' E 002°18'816.3
2017-Nov-23 00:30N 51°43' E 002°08'815.8
2017-Nov-23 00:00N 51°38' E 001°57'815.6
2017-Nov-22 23:30N 51°34' E 001°47'815.4
2017-Nov-22 23:01N 51°29' E 001°37'612.9
2017-Nov-22 22:31N 51°25' E 001°29'3 6.1
2017-Nov-22 22:00N 51°28' E 001°29'713.8
2017-Nov-22 21:30N 51°34' E 001°24'4 8.3
2017-Nov-22 21:00N 51°36' E 001°18'714.8
2017-Nov-22 20:31N 51°32' E 001°08'917.1
2017-Nov-22 20:00N 51°29' E 000°55'917.2
2017-Nov-22 19:30N 51°30' E 000°42'  
2017-Nov-19 20:00N 41°29' W 008°59'916.5
2017-Nov-19 19:29N 41°21' W 008°54'816.5
2017-Nov-19 19:00N 41°14' W 008°50'713.7
2017-Nov-19 18:31N 41°10' W 008°42'2 3.7
2017-Nov-19 17:58N 41°12' W 008°41'0 0.0
2017-Nov-19 17:28N 41°12' W 008°41'0 0.0
2017-Nov-19 16:58N 41°12' W 008°41'0 0.0
2017-Nov-19 16:28N 41°12' W 008°41'0 0.0
2017-Nov-19 15:58N 41°12' W 008°41'0 0.0
2017-Nov-19 15:28N 41°12' W 008°41'0 0.0
2017-Nov-19 14:58N 41°12' W 008°41'0 0.0
2017-Nov-19 14:28N 41°12' W 008°41'0 0.0
2017-Nov-19 13:58N 41°12' W 008°41'0 0.1
2017-Nov-19 13:28N 41°12' W 008°41'0 0.0
2017-Nov-19 12:52N 41°12' W 008°41'0 0.0
2017-Nov-19 12:28N 41°12' W 008°41'0 0.0
2017-Nov-19 11:58N 41°12' W 008°41'0 0.0
2017-Nov-19 11:28N 41°12' W 008°41'0 0.0
2017-Nov-19 10:58N 41°12' W 008°41'0 0.0
2017-Nov-19 10:28N 41°12' W 008°41'0 0.0
2017-Nov-19 09:58N 41°12' W 008°41'0 0.0
2017-Nov-19 09:28N 41°12' W 008°41'0 0.0
2017-Nov-19 08:58N 41°12' W 008°41'0 0.0
2017-Nov-19 08:28N 41°12' W 008°41'0 0.0
2017-Nov-19 07:58N 41°12' W 008°41'0 0.0
2017-Nov-19 07:28N 41°12' W 008°41'0 0.0
2017-Nov-19 06:58N 41°12' W 008°41'0 0.0
2017-Nov-19 06:22N 41°12' W 008°41'0 0.0
2017-Nov-19 05:58N 41°12' W 008°41'0 0.0
2017-Nov-19 05:28N 41°12' W 008°41'0 0.0
2017-Nov-19 04:58N 41°12' W 008°41'0 0.0
2017-Nov-19 04:28N 41°12' W 008°41'0 0.0
2017-Nov-19 03:58N 41°12' W 008°41'0 0.0
2017-Nov-19 03:28N 41°12' W 008°41'0 0.0
2017-Nov-19 02:58N 41°12' W 008°41'0 0.0
2017-Nov-19 02:28N 41°12' W 008°41'0 0.0
2017-Nov-19 01:58N 41°12' W 008°41'0 0.0
2017-Nov-19 01:28N 41°12' W 008°41'0 0.0
2017-Nov-19 00:58N 41°12' W 008°41'0 0.0
2017-Nov-19 00:22N 41°12' W 008°41'0 0.0
2017-Nov-18 23:58N 41°12' W 008°41'0 0.0
2017-Nov-18 23:28N 41°12' W 008°41'0 0.0
2017-Nov-18 22:58N 41°12' W 008°41'0 0.0
2017-Nov-18 22:28N 41°12' W 008°41'0 0.0
2017-Nov-18 21:58N 41°12' W 008°41'0 0.0
2017-Nov-18 21:28N 41°12' W 008°41'0 0.0
2017-Nov-18 20:58N 41°12' W 008°41'0 0.0
2017-Nov-18 20:28N 41°12' W 008°41'0 0.0
2017-Nov-18 20:01N 41°12' W 008°41'2 3.0
2017-Nov-18 19:31N 41°10' W 008°42'4 7.5
2017-Nov-18 19:01N 41°10' W 008°47'1 1.8
2017-Nov-18 18:30N 41°11' W 008°48'0 0.5
2017-Nov-18 18:00N 41°11' W 008°48'1 1.2
2017-Nov-18 17:31N 41°10' W 008°49'1 1.3
2017-Nov-18 17:01N 41°10' W 008°49'1 1.3
2017-Nov-18 16:31N 41°09' W 008°49'1 1.7
2017-Nov-18 16:00N 41°08' W 008°49'5 9.2
2017-Nov-18 15:30N 41°05' W 008°53'714.8
2017-Nov-18 15:00N 40°58' W 008°57'1414.8
2017-Nov-18 14:05N 40°45' W 009°04'114.6
2017-Nov-18 14:00N 40°44' W 009°05'2414.9
2017-Nov-18 12:25N 40°23' W 009°18'914.8
2017-Nov-18 11:50N 40°15' W 009°22'814.7
2017-Nov-18 11:19N 40°08' W 009°26'514.6
2017-Nov-18 10:57N 40°03' W 009°29'714.7
2017-Nov-18 10:30N 39°57' W 009°32'815.1
2017-Nov-18 10:00N 39°50' W 009°36'815.1
2017-Nov-18 09:30N 39°43' W 009°39'714.5
2017-Nov-18 09:00N 39°36' W 009°43'713.9
2017-Nov-18 08:30N 39°29' W 009°45'714.7
2017-Nov-18 08:00N 39°22' W 009°45'714.7
2017-Nov-18 07:30N 39°15' W 009°44'714.4
2017-Nov-18 07:01N 39°08' W 009°44'714.4
2017-Nov-18 06:30N 39°00' W 009°43'714.5
2017-Nov-18 06:00N 38°53' W 009°43'714.2
2017-Nov-18 05:30N 38°46' W 009°42'714.4
2017-Nov-18 05:01N 38°39' W 009°41'714.2
2017-Nov-18 04:30N 38°34' W 009°34'714.9
2017-Nov-18 04:00N 38°29' W 009°27'715.0
2017-Nov-18 03:30N 38°24' W 009°20'714.4
2017-Nov-18 03:00N 38°20' W 009°12'815.5
2017-Nov-18 02:30N 38°24' W 009°03'713.1
2017-Nov-18 02:00N 38°28' W 008°57'4 8.9
2017-Nov-18 01:30N 38°31' W 008°52'0 0.4
2017-Nov-18 01:00N 38°31' W 008°52'0 0.0
2017-Nov-18 00:30N 38°31' W 008°52'0 0.0
2017-Nov-18 00:00N 38°31' W 008°52'0 0.0
2017-Nov-17 23:30N 38°31' W 008°52'0 0.0
2017-Nov-17 22:27N 38°31' W 008°52'0 0.0
2017-Nov-17 22:00N 38°31' W 008°52'0 0.0
2017-Nov-17 21:30N 38°31' W 008°52'0 0.0
2017-Nov-17 21:00N 38°31' W 008°52'0 0.0
2017-Nov-17 20:30N 38°31' W 008°52'0 0.0
2017-Nov-17 20:00N 38°31' W 008°52'0 0.0
2017-Nov-17 19:30N 38°31' W 008°52'0 0.0
2017-Nov-17 19:00N 38°31' W 008°52'0 0.0
2017-Nov-17 18:27N 38°31' W 008°52'0 0.0
2017-Nov-17 18:00N 38°31' W 008°52'0 0.0
2017-Nov-17 17:27N 38°31' W 008°52'0 0.0
2017-Nov-17 17:00N 38°31' W 008°52'0 0.0
2017-Nov-17 16:30N 38°31' W 008°52'0 0.0
2017-Nov-17 16:00N 38°31' W 008°52'0 0.0
2017-Nov-17 15:30N 38°31' W 008°52'0 0.0
2017-Nov-17 15:00N 38°31' W 008°52'0 0.0
2017-Nov-17 14:30N 38°31' W 008°52'0 0.0
2017-Nov-17 14:00N 38°31' W 008°52'0 0.0
2017-Nov-17 13:30N 38°31' W 008°52'0 0.0
2017-Nov-17 13:00N 38°31' W 008°52'0 0.0
2017-Nov-17 12:27N 38°31' W 008°52'0 0.0
2017-Nov-17 11:57N 38°31' W 008°52'0 0.0
2017-Nov-17 11:30N 38°31' W 008°52'0 0.0
2017-Nov-17 11:00N 38°31' W 008°52'0 0.0
2017-Nov-17 10:30N 38°31' W 008°52'0 0.0
2017-Nov-17 10:00N 38°31' W 008°52'0 0.0
2017-Nov-17 09:30N 38°31' W 008°52'0 0.0
2017-Nov-17 09:00N 38°31' W 008°52'0 0.0
2017-Nov-17 08:30N 38°31' W 008°52'0 0.0
2017-Nov-17 08:00N 38°31' W 008°52'0 0.0
2017-Nov-17 07:30N 38°31' W 008°52'0 0.0
2017-Nov-17 07:00N 38°31' W 008°52'0 0.0
2017-Nov-17 06:27N 38°31' W 008°52'0 0.0
2017-Nov-17 05:59N 38°31' W 008°52'0 0.0
2017-Nov-17 05:29N 38°31' W 008°52'0 0.0
2017-Nov-17 04:59N 38°31' W 008°52'0 0.0
2017-Nov-17 04:29N 38°31' W 008°52'0 0.0
2017-Nov-17 03:56N 38°31' W 008°52'0 0.0
2017-Nov-17 03:29N 38°31' W 008°52'0 0.0
2017-Nov-17 02:59N 38°31' W 008°52'0 0.0
2017-Nov-17 02:29N 38°31' W 008°52'0 0.0
2017-Nov-17 01:59N 38°31' W 008°52'0 0.0
2017-Nov-17 01:29N 38°31' W 008°52'0 0.0
2017-Nov-17 00:59N 38°31' W 008°52'0 0.0
2017-Nov-17 00:26N 38°31' W 008°52'0 0.0
2017-Nov-16 23:59N 38°31' W 008°52'0 0.0
2017-Nov-16 23:29N 38°31' W 008°52'0 0.0
2017-Nov-16 22:59N 38°31' W 008°52'0 0.0
2017-Nov-16 22:29N 38°31' W 008°52'0 0.0
2017-Nov-16 21:59N 38°31' W 008°52'0 0.0
2017-Nov-16 21:29N 38°31' W 008°52'0 0.0
2017-Nov-16 20:59N 38°31' W 008°52'0 0.0
2017-Nov-16 20:20N 38°31' W 008°52'0 0.0
2017-Nov-16 19:56N 38°31' W 008°52'0 0.0
2017-Nov-16 19:26N 38°31' W 008°52'0 0.0
2017-Nov-16 19:00N 38°31' W 008°52'1 1.9
2017-Nov-16 18:31N 38°31' W 008°53'611.4
2017-Nov-16 18:00N 38°27' W 008°58'613.0
2017-Nov-16 17:30N 38°23' W 009°05'713.8
2017-Nov-16 17:00N 38°21' W 009°14'713.4
2017-Nov-16 16:30N 38°26' W 009°19'815.8
2017-Nov-16 16:00N 38°34' W 009°22'815.0
2017-Nov-16 15:30N 38°41' W 009°18'714.3
2017-Nov-16 15:00N 38°42' W 009°09'2 4.9
2017-Nov-16 14:30N 38°43' W 009°07'0 0.0
2017-Nov-16 14:00N 38°43' W 009°07'0 0.0
2017-Nov-16 13:30N 38°43' W 009°07'0 0.0
2017-Nov-16 13:00N 38°43' W 009°07'0 0.0
2017-Nov-16 12:30N 38°43' W 009°07'0 0.0
2017-Nov-16 12:00N 38°43' W 009°07'0 0.0
2017-Nov-16 11:30N 38°43' W 009°07'0 0.0
2017-Nov-16 11:00N 38°43' W 009°07'0 0.0
2017-Nov-16 10:30N 38°43' W 009°07'0 0.0
2017-Nov-16 10:00N 38°43' W 009°07'0 0.0
2017-Nov-16 09:30N 38°43' W 009°07'0 0.0
2017-Nov-16 09:00N 38°43' W 009°07'0 0.0
2017-Nov-16 08:30N 38°43' W 009°07'0 0.0
2017-Nov-16 08:00N 38°43' W 009°07'0 0.0
2017-Nov-16 07:30N 38°43' W 009°07'0 0.0
2017-Nov-16 07:00N 38°43' W 009°07'1 1.8
2017-Nov-16 06:30N 38°43' W 009°07'610.0
2017-Nov-16 05:56N 38°41' W 009°14'410.4
2017-Nov-16 05:30N 38°39' W 009°19'713.4
2017-Nov-16 05:00N 38°36' W 009°27'714.4
2017-Nov-16 04:31N 38°35' W 009°36'714.7
2017-Nov-16 04:00N 38°35' W 009°45'714.8
2017-Nov-16 03:30N 38°34' W 009°55'714.2
2017-Nov-16 03:01N 38°34' W 010°04'714.6
2017-Nov-16 02:31N 38°42' W 010°06'714.6
2017-Nov-16 02:00N 38°49' W 010°07'714.7
2017-Nov-16 01:31N 38°56' W 010°07'714.8
2017-Nov-16 01:00N 39°04' W 010°07'714.4
2017-Nov-16 00:31N 39°11' W 010°06'714.5
2017-Nov-16 00:01N 39°18' W 010°06'1314.9
2017-Nov-15 23:08N 39°31' W 010°06'  
Track history (hours):
 
Tides and Currents Weather Stations Pressure Air Temp Water Temp Dewpoint Dewpoint Depression Visibility Wind Speed Wind Dir Waves Ship Positions

Elite

Last reported at 2017-Nov-24 07:30 UTC. Time now 2017-Nov-24 07:33 UTC.
Position N 51°53' E 004°25'.

Length 149 m; draft 6.5 m.

Type: Ship (hazmat cat A). MMSI: 246363000.

Date/timePositionNaut miles runAvg speedWind from/ knotsBaromVisibWave heightAir tempDewpointWater temp
2017-Nov-24 07:30N 51°53' E 004°25'0 0.0
2017-Nov-24 07:00N 51°53' E 004°25'0 0.0
2017-Nov-24 06:30N 51°53' E 004°25'0 0.0
2017-Nov-24 06:00N 51°53' E 004°25'0 0.0
2017-Nov-24 05:30N 51°53' E 004°25'0 0.0
2017-Nov-24 05:00N 51°53' E 004°25'0 0.9
2017-Nov-24 04:30N 51°53' E 004°24'3 6.4
2017-Nov-24 04:00N 51°54' E 004°19'4 7.3
2017-Nov-24 03:30N 51°51' E 004°23'510.7
2017-Nov-24 03:01N 51°50' E 004°31'4 8.2
2017-Nov-24 02:31N 51°48' E 004°37'5 9.4
2017-Nov-24 02:00N 51°43' E 004°37'2 4.8
2017-Nov-24 01:30N 51°41' E 004°36'0 0.0
2017-Nov-24 01:00N 51°41' E 004°36'0 0.0
2017-Nov-24 00:24N 51°41' E 004°36'0 0.0
2017-Nov-24 00:00N 51°41' E 004°36'0 0.0
2017-Nov-23 23:30N 51°41' E 004°36'0 0.0
2017-Nov-23 23:00N 51°41' E 004°36'0 0.0
2017-Nov-23 22:30N 51°41' E 004°36'0 0.0
2017-Nov-23 22:00N 51°41' E 004°36'0 0.0
2017-Nov-23 21:27N 51°41' E 004°36'0 0.0
2017-Nov-23 21:00N 51°41' E 004°36'0 0.0
2017-Nov-23 20:30N 51°41' E 004°36'0 0.0
2017-Nov-23 20:00N 51°41' E 004°36'0 0.0
2017-Nov-23 19:30N 51°41' E 004°36'0 0.0
2017-Nov-23 19:00N 51°41' E 004°36'0 0.0
2017-Nov-23 18:30N 51°41' E 004°36'0 0.0
2017-Nov-23 18:00N 51°41' E 004°36'0 0.0
2017-Nov-23 17:30N 51°41' E 004°36'0 0.0
2017-Nov-23 16:57N 51°41' E 004°36'0 0.0
2017-Nov-23 16:30N 51°41' E 004°36'0 0.0
2017-Nov-23 16:00N 51°41' E 004°36'0 0.0
2017-Nov-23 15:30N 51°41' E 004°36'0 0.0
2017-Nov-23 15:00N 51°41' E 004°36'0 0.0
2017-Nov-23 14:21N 51°41' E 004°36'0 0.0
2017-Nov-23 14:00N 51°41' E 004°36'0 0.0
2017-Nov-23 13:30N 51°41' E 004°36'0 0.0
2017-Nov-23 12:57N 51°41' E 004°36'0 0.0
2017-Nov-23 12:18N 51°41' E 004°36'0 0.0
2017-Nov-23 11:51N 51°41' E 004°36'0 0.0
2017-Nov-23 11:30N 51°41' E 004°36'0 0.0
2017-Nov-23 11:00N 51°41' E 004°36'0 0.0
2017-Nov-23 10:30N 51°41' E 004°36'0 0.0
2017-Nov-23 10:00N 51°41' E 004°36'0 0.3
2017-Nov-23 09:30N 51°41' E 004°36'1 1.5
2017-Nov-23 09:00N 51°42' E 004°36'4 8.0
2017-Nov-23 08:30N 51°46' E 004°38'4 8.0
2017-Nov-23 08:00N 51°49' E 004°34'4 8.9
2017-Nov-23 07:30N 51°50' E 004°27'510.1
2017-Nov-23 07:00N 51°52' E 004°20'5 9.5
2017-Nov-23 06:30N 51°55' E 004°14'612.6
2017-Nov-23 06:00N 51°59' E 004°05'714.1
2017-Nov-23 05:30N 52°01' E 003°54'510.4
2017-Nov-23 05:00N 51°59' E 003°46'611.9
2017-Nov-23 04:30N 51°58' E 003°36'713.5
2017-Nov-23 04:00N 51°56' E 003°26'1413.6
2017-Nov-23 02:58N 51°53' E 003°04'2914.5
2017-Nov-23 00:59N 51°47' E 002°18'816.3
2017-Nov-23 00:30N 51°43' E 002°08'815.8
2017-Nov-23 00:00N 51°38' E 001°57'815.6
2017-Nov-22 23:30N 51°34' E 001°47'815.4
2017-Nov-22 23:01N 51°29' E 001°37'612.9
2017-Nov-22 22:31N 51°25' E 001°29'3 6.1
2017-Nov-22 22:00N 51°28' E 001°29'713.8
2017-Nov-22 21:30N 51°34' E 001°24'4 8.3
2017-Nov-22 21:00N 51°36' E 001°18'714.8
2017-Nov-22 20:31N 51°32' E 001°08'917.1
2017-Nov-22 20:00N 51°29' E 000°55'917.2
2017-Nov-22 19:30N 51°30' E 000°42'  
2017-Nov-19 20:00N 41°29' W 008°59'916.5
2017-Nov-19 19:29N 41°21' W 008°54'816.5
2017-Nov-19 19:00N 41°14' W 008°50'713.7
2017-Nov-19 18:31N 41°10' W 008°42'2 3.7
2017-Nov-19 17:58N 41°12' W 008°41'0 0.0
2017-Nov-19 17:28N 41°12' W 008°41'0 0.0
2017-Nov-19 16:58N 41°12' W 008°41'0 0.0
2017-Nov-19 16:28N 41°12' W 008°41'0 0.0
2017-Nov-19 15:58N 41°12' W 008°41'0 0.0
2017-Nov-19 15:28N 41°12' W 008°41'0 0.0
2017-Nov-19 14:58N 41°12' W 008°41'0 0.0
2017-Nov-19 14:28N 41°12' W 008°41'0 0.0
2017-Nov-19 13:58N 41°12' W 008°41'0 0.1
2017-Nov-19 13:28N 41°12' W 008°41'0 0.0
2017-Nov-19 12:52N 41°12' W 008°41'0 0.0
2017-Nov-19 12:28N 41°12' W 008°41'0 0.0
2017-Nov-19 11:58N 41°12' W 008°41'0 0.0
2017-Nov-19 11:28N 41°12' W 008°41'0 0.0
2017-Nov-19 10:58N 41°12' W 008°41'0 0.0
2017-Nov-19 10:28N 41°12' W 008°41'0 0.0
2017-Nov-19 09:58N 41°12' W 008°41'0 0.0
2017-Nov-19 09:28N 41°12' W 008°41'0 0.0
2017-Nov-19 08:58N 41°12' W 008°41'0 0.0
2017-Nov-19 08:28N 41°12' W 008°41'0 0.0
2017-Nov-19 07:58N 41°12' W 008°41'0 0.0
2017-Nov-19 07:28N 41°12' W 008°41'0 0.0
2017-Nov-19 06:58N 41°12' W 008°41'0 0.0
2017-Nov-19 06:22N 41°12' W 008°41'0 0.0
2017-Nov-19 05:58N 41°12' W 008°41'0 0.0
2017-Nov-19 05:28N 41°12' W 008°41'0 0.0
2017-Nov-19 04:58N 41°12' W 008°41'0 0.0
2017-Nov-19 04:28N 41°12' W 008°41'0 0.0
2017-Nov-19 03:58N 41°12' W 008°41'0 0.0
2017-Nov-19 03:28N 41°12' W 008°41'0 0.0
2017-Nov-19 02:58N 41°12' W 008°41'0 0.0
2017-Nov-19 02:28N 41°12' W 008°41'0 0.0
2017-Nov-19 01:58N 41°12' W 008°41'0 0.0
2017-Nov-19 01:28N 41°12' W 008°41'0 0.0
2017-Nov-19 00:58N 41°12' W 008°41'0 0.0
2017-Nov-19 00:22N 41°12' W 008°41'0 0.0
2017-Nov-18 23:58N 41°12' W 008°41'0 0.0
2017-Nov-18 23:28N 41°12' W 008°41'0 0.0
2017-Nov-18 22:58N 41°12' W 008°41'0 0.0
2017-Nov-18 22:28N 41°12' W 008°41'0 0.0
2017-Nov-18 21:58N 41°12' W 008°41'0 0.0
2017-Nov-18 21:28N 41°12' W 008°41'0 0.0
2017-Nov-18 20:58N 41°12' W 008°41'0 0.0
2017-Nov-18 20:28N 41°12' W 008°41'0 0.0
2017-Nov-18 20:01N 41°12' W 008°41'2 3.0
2017-Nov-18 19:31N 41°10' W 008°42'4 7.5
2017-Nov-18 19:01N 41°10' W 008°47'1 1.8
2017-Nov-18 18:30N 41°11' W 008°48'0 0.5
2017-Nov-18 18:00N 41°11' W 008°48'1 1.2
2017-Nov-18 17:31N 41°10' W 008°49'1 1.3
2017-Nov-18 17:01N 41°10' W 008°49'1 1.3
2017-Nov-18 16:31N 41°09' W 008°49'1 1.7
2017-Nov-18 16:00N 41°08' W 008°49'5 9.2
2017-Nov-18 15:30N 41°05' W 008°53'714.8
2017-Nov-18 15:00N 40°58' W 008°57'1414.8
2017-Nov-18 14:05N 40°45' W 009°04'114.6
2017-Nov-18 14:00N 40°44' W 009°05'2414.9
2017-Nov-18 12:25N 40°23' W 009°18'914.8
2017-Nov-18 11:50N 40°15' W 009°22'814.7
2017-Nov-18 11:19N 40°08' W 009°26'514.6
2017-Nov-18 10:57N 40°03' W 009°29'714.7
2017-Nov-18 10:30N 39°57' W 009°32'815.1
2017-Nov-18 10:00N 39°50' W 009°36'815.1
2017-Nov-18 09:30N 39°43' W 009°39'714.5
2017-Nov-18 09:00N 39°36' W 009°43'713.9
2017-Nov-18 08:30N 39°29' W 009°45'714.7
2017-Nov-18 08:00N 39°22' W 009°45'714.7
2017-Nov-18 07:30N 39°15' W 009°44'714.4
2017-Nov-18 07:01N 39°08' W 009°44'714.4
2017-Nov-18 06:30N 39°00' W 009°43'714.5
2017-Nov-18 06:00N 38°53' W 009°43'714.2
2017-Nov-18 05:30N 38°46' W 009°42'714.4
2017-Nov-18 05:01N 38°39' W 009°41'714.2
2017-Nov-18 04:30N 38°34' W 009°34'714.9
2017-Nov-18 04:00N 38°29' W 009°27'715.0
2017-Nov-18 03:30N 38°24' W 009°20'714.4
2017-Nov-18 03:00N 38°20' W 009°12'815.5
2017-Nov-18 02:30N 38°24' W 009°03'713.1
2017-Nov-18 02:00N 38°28' W 008°57'4 8.9
2017-Nov-18 01:30N 38°31' W 008°52'0 0.4
2017-Nov-18 01:00N 38°31' W 008°52'0 0.0
2017-Nov-18 00:30N 38°31' W 008°52'0 0.0
2017-Nov-18 00:00N 38°31' W 008°52'0 0.0
2017-Nov-17 23:30N 38°31' W 008°52'0 0.0
2017-Nov-17 22:27N 38°31' W 008°52'0 0.0
2017-Nov-17 22:00N 38°31' W 008°52'0 0.0
2017-Nov-17 21:30N 38°31' W 008°52'0 0.0
2017-Nov-17 21:00N 38°31' W 008°52'0 0.0
2017-Nov-17 20:30N 38°31' W 008°52'0 0.0
2017-Nov-17 20:00N 38°31' W 008°52'0 0.0
2017-Nov-17 19:30N 38°31' W 008°52'0 0.0
2017-Nov-17 19:00N 38°31' W 008°52'0 0.0
2017-Nov-17 18:27N 38°31' W 008°52'0 0.0
2017-Nov-17 18:00N 38°31' W 008°52'0 0.0
2017-Nov-17 17:27N 38°31' W 008°52'0 0.0
2017-Nov-17 17:00N 38°31' W 008°52'0 0.0
2017-Nov-17 16:30N 38°31' W 008°52'0 0.0
2017-Nov-17 16:00N 38°31' W 008°52'0 0.0
2017-Nov-17 15:30N 38°31' W 008°52'0 0.0
2017-Nov-17 15:00N 38°31' W 008°52'0 0.0
2017-Nov-17 14:30N 38°31' W 008°52'0 0.0
2017-Nov-17 14:00N 38°31' W 008°52'0 0.0
2017-Nov-17 13:30N 38°31' W 008°52'0 0.0
2017-Nov-17 13:00N 38°31' W 008°52'0 0.0
2017-Nov-17 12:27N 38°31' W 008°52'0 0.0
2017-Nov-17 11:57N 38°31' W 008°52'0 0.0
2017-Nov-17 11:30N 38°31' W 008°52'0 0.0
2017-Nov-17 11:00N 38°31' W 008°52'0 0.0
2017-Nov-17 10:30N 38°31' W 008°52'0 0.0
2017-Nov-17 10:00N 38°31' W 008°52'0 0.0
2017-Nov-17 09:30N 38°31' W 008°52'0 0.0
2017-Nov-17 09:00N 38°31' W 008°52'0 0.0
2017-Nov-17 08:30N 38°31' W 008°52'0 0.0
2017-Nov-17 08:00N 38°31' W 008°52'0 0.0
2017-Nov-17 07:30N 38°31' W 008°52'0 0.0
2017-Nov-17 07:00N 38°31' W 008°52'0 0.0
2017-Nov-17 06:27N 38°31' W 008°52'0 0.0
2017-Nov-17 05:59N 38°31' W 008°52'0 0.0
2017-Nov-17 05:29N 38°31' W 008°52'0 0.0
2017-Nov-17 04:59N 38°31' W 008°52'0 0.0
2017-Nov-17 04:29N 38°31' W 008°52'0 0.0
2017-Nov-17 03:56N 38°31' W 008°52'0 0.0
2017-Nov-17 03:29N 38°31' W 008°52'0 0.0
2017-Nov-17 02:59N 38°31' W 008°52'0 0.0
2017-Nov-17 02:29N 38°31' W 008°52'0 0.0
2017-Nov-17 01:59N 38°31' W 008°52'0 0.0
2017-Nov-17 01:29N 38°31' W 008°52'0 0.0
2017-Nov-17 00:59N 38°31' W 008°52'0 0.0
2017-Nov-17 00:26N 38°31' W 008°52'0 0.0
2017-Nov-16 23:59N 38°31' W 008°52'0 0.0
2017-Nov-16 23:29N 38°31' W 008°52'0 0.0
2017-Nov-16 22:59N 38°31' W 008°52'0 0.0
2017-Nov-16 22:29N 38°31' W 008°52'0 0.0
2017-Nov-16 21:59N 38°31' W 008°52'0 0.0
2017-Nov-16 21:29N 38°31' W 008°52'0 0.0
2017-Nov-16 20:59N 38°31' W 008°52'0 0.0
2017-Nov-16 20:20N 38°31' W 008°52'0 0.0
2017-Nov-16 19:56N 38°31' W 008°52'0 0.0
2017-Nov-16 19:26N 38°31' W 008°52'0 0.0
2017-Nov-16 19:00N 38°31' W 008°52'1 1.9
2017-Nov-16 18:31N 38°31' W 008°53'611.4
2017-Nov-16 18:00N 38°27' W 008°58'613.0
2017-Nov-16 17:30N 38°23' W 009°05'713.8
2017-Nov-16 17:00N 38°21' W 009°14'713.4
2017-Nov-16 16:30N 38°26' W 009°19'815.8
2017-Nov-16 16:00N 38°34' W 009°22'815.0
2017-Nov-16 15:30N 38°41' W 009°18'714.3
2017-Nov-16 15:00N 38°42' W 009°09'2 4.9
2017-Nov-16 14:30N 38°43' W 009°07'0 0.0
2017-Nov-16 14:00N 38°43' W 009°07'0 0.0
2017-Nov-16 13:30N 38°43' W 009°07'0 0.0
2017-Nov-16 13:00N 38°43' W 009°07'0 0.0
2017-Nov-16 12:30N 38°43' W 009°07'0 0.0
2017-Nov-16 12:00N 38°43' W 009°07'0 0.0
2017-Nov-16 11:30N 38°43' W 009°07'0 0.0
2017-Nov-16 11:00N 38°43' W 009°07'0 0.0
2017-Nov-16 10:30N 38°43' W 009°07'0 0.0
2017-Nov-16 10:00N 38°43' W 009°07'0 0.0
2017-Nov-16 09:30N 38°43' W 009°07'0 0.0
2017-Nov-16 09:00N 38°43' W 009°07'0 0.0
2017-Nov-16 08:30N 38°43' W 009°07'0 0.0
2017-Nov-16 08:00N 38°43' W 009°07'0 0.0
2017-Nov-16 07:30N 38°43' W 009°07'0 0.0
2017-Nov-16 07:00N 38°43' W 009°07'1 1.8
2017-Nov-16 06:30N 38°43' W 009°07'610.0
2017-Nov-16 05:56N 38°41' W 009°14'410.4
2017-Nov-16 05:30N 38°39' W 009°19'713.4
2017-Nov-16 05:00N 38°36' W 009°27'714.4
2017-Nov-16 04:31N 38°35' W 009°36'714.7
2017-Nov-16 04:00N 38°35' W 009°45'714.8
2017-Nov-16 03:30N 38°34' W 009°55'714.2
2017-Nov-16 03:01N 38°34' W 010°04'714.6
2017-Nov-16 02:31N 38°42' W 010°06'714.6
2017-Nov-16 02:00N 38°49' W 010°07'714.7
2017-Nov-16 01:31N 38°56' W 010°07'714.8
2017-Nov-16 01:00N 39°04' W 010°07'714.4
2017-Nov-16 00:31N 39°11' W 010°06'714.5
2017-Nov-16 00:01N 39°18' W 010°06'1314.9
2017-Nov-15 23:08N 39°31' W 010°06'  

Dump ship's entire track history